sensor_id;sensor_type;location;lat;lon;timestamp;P1;durP1;ratioP1;P2;durP2;ratioP2
24799;SDS011;12897;50.812;4.430;2023-03-05T00:01:14;9.25;;;2.95;;
24799;SDS011;12897;50.812;4.430;2023-03-05T00:03:44;9.05;;;2.60;;
24799;SDS011;12897;50.812;4.430;2023-03-05T00:06:12;8.53;;;2.80;;
24799;SDS011;12897;50.812;4.430;2023-03-05T00:08:39;7.78;;;2.02;;
24799;SDS011;12897;50.812;4.430;2023-03-05T00:11:08;9.03;;;2.85;;
24799;SDS011;12897;50.812;4.430;2023-03-05T00:13:36;10.15;;;2.80;;
24799;SDS011;12897;50.812;4.430;2023-03-05T00:16:06;7.80;;;3.00;;
24799;SDS011;12897;50.812;4.430;2023-03-05T00:18:35;6.58;;;2.12;;
24799;SDS011;12897;50.812;4.430;2023-03-05T00:21:04;8.90;;;2.27;;
24799;SDS011;12897;50.812;4.430;2023-03-05T00:23:33;11.05;;;2.20;;
24799;SDS011;12897;50.812;4.430;2023-03-05T00:26:00;11.83;;;3.00;;
24799;SDS011;12897;50.812;4.430;2023-03-05T00:28:29;8.73;;;2.98;;
24799;SDS011;12897;50.812;4.430;2023-03-05T00:31:01;9.65;;;2.75;;
24799;SDS011;12897;50.812;4.430;2023-03-05T00:33:28;7.30;;;2.55;;
24799;SDS011;12897;50.812;4.430;2023-03-05T00:38:43;10.98;;;3.00;;
24799;SDS011;12897;50.812;4.430;2023-03-05T00:41:10;8.90;;;3.22;;
24799;SDS011;12897;50.812;4.430;2023-03-05T00:43:38;8.38;;;2.92;;
24799;SDS011;12897;50.812;4.430;2023-03-05T00:46:05;13.62;;;3.30;;
24799;SDS011;12897;50.812;4.430;2023-03-05T00:48:33;14.87;;;3.87;;
24799;SDS011;12897;50.812;4.430;2023-03-05T00:51:01;11.97;;;3.75;;
24799;SDS011;12897;50.812;4.430;2023-03-05T00:53:28;13.43;;;4.17;;
24799;SDS011;12897;50.812;4.430;2023-03-05T00:55:56;13.48;;;4.83;;
24799;SDS011;12897;50.812;4.430;2023-03-05T00:58:24;11.22;;;4.50;;
24799;SDS011;12897;50.812;4.430;2023-03-05T01:00:52;13.55;;;4.70;;
24799;SDS011;12897;50.812;4.430;2023-03-05T01:03:25;10.32;;;4.33;;
24799;SDS011;12897;50.812;4.430;2023-03-05T01:05:52;12.73;;;4.42;;
24799;SDS011;12897;50.812;4.430;2023-03-05T01:08:20;13.10;;;4.87;;
24799;SDS011;12897;50.812;4.430;2023-03-05T01:10:47;10.32;;;4.95;;
24799;SDS011;12897;50.812;4.430;2023-03-05T01:13:15;14.10;;;5.92;;
24799;SDS011;12897;50.812;4.430;2023-03-05T01:15:42;15.50;;;5.22;;
24799;SDS011;12897;50.812;4.430;2023-03-05T01:18:12;18.92;;;5.10;;
24799;SDS011;12897;50.812;4.430;2023-03-05T01:20:39;9.75;;;4.60;;
24799;SDS011;12897;50.812;4.430;2023-03-05T01:23:07;9.38;;;5.35;;
24799;SDS011;12897;50.812;4.430;2023-03-05T01:25:35;13.13;;;4.85;;
24799;SDS011;12897;50.812;4.430;2023-03-05T01:28:02;13.32;;;5.10;;
24799;SDS011;12897;50.812;4.430;2023-03-05T01:30:30;14.65;;;4.65;;
24799;SDS011;12897;50.812;4.430;2023-03-05T01:32:58;11.88;;;5.72;;
24799;SDS011;12897;50.812;4.430;2023-03-05T01:35:27;13.03;;;5.28;;
24799;SDS011;12897;50.812;4.430;2023-03-05T01:37:55;14.43;;;5.40;;
24799;SDS011;12897;50.812;4.430;2023-03-05T01:40:29;15.48;;;5.75;;
24799;SDS011;12897;50.812;4.430;2023-03-05T01:42:57;18.25;;;5.87;;
24799;SDS011;12897;50.812;4.430;2023-03-05T01:45:33;16.48;;;6.15;;
24799;SDS011;12897;50.812;4.430;2023-03-05T01:47:57;17.73;;;6.60;;
24799;SDS011;12897;50.812;4.430;2023-03-05T01:50:25;22.98;;;7.47;;
24799;SDS011;12897;50.812;4.430;2023-03-05T01:52:58;18.02;;;6.87;;
24799;SDS011;12897;50.812;4.430;2023-03-05T01:55:27;12.65;;;6.28;;
24799;SDS011;12897;50.812;4.430;2023-03-05T01:58:04;23.25;;;6.67;;
24799;SDS011;12897;50.812;4.430;2023-03-05T02:00:36;18.70;;;5.75;;
24799;SDS011;12897;50.812;4.430;2023-03-05T02:03:06;17.90;;;6.72;;
24799;SDS011;12897;50.812;4.430;2023-03-05T02:05:36;16.93;;;6.00;;
24799;SDS011;12897;50.812;4.430;2023-03-05T02:08:07;14.85;;;6.15;;
24799;SDS011;12897;50.812;4.430;2023-03-05T02:13:06;13.48;;;6.17;;
24799;SDS011;12897;50.812;4.430;2023-03-05T02:15:34;21.48;;;7.00;;
24799;SDS011;12897;50.812;4.430;2023-03-05T02:18:04;22.67;;;8.43;;
24799;SDS011;12897;50.812;4.430;2023-03-05T02:20:46;17.60;;;8.28;;
24799;SDS011;12897;50.812;4.430;2023-03-05T02:23:16;21.37;;;8.50;;
24799;SDS011;12897;50.812;4.430;2023-03-05T02:25:45;21.75;;;8.58;;
24799;SDS011;12897;50.812;4.430;2023-03-05T02:28:15;21.62;;;8.53;;
24799;SDS011;12897;50.812;4.430;2023-03-05T02:30:47;15.65;;;7.95;;
24799;SDS011;12897;50.812;4.430;2023-03-05T02:33:15;21.82;;;8.40;;
24799;SDS011;12897;50.812;4.430;2023-03-05T02:35:44;23.95;;;8.65;;
24799;SDS011;12897;50.812;4.430;2023-03-05T02:38:13;21.10;;;8.65;;
24799;SDS011;12897;50.812;4.430;2023-03-05T02:40:41;19.90;;;8.30;;
24799;SDS011;12897;50.812;4.430;2023-03-05T02:43:09;19.05;;;8.55;;
24799;SDS011;12897;50.812;4.430;2023-03-05T02:45:37;16.17;;;7.85;;
24799;SDS011;12897;50.812;4.430;2023-03-05T02:48:05;23.22;;;7.95;;
24799;SDS011;12897;50.812;4.430;2023-03-05T02:50:33;22.37;;;7.60;;
24799;SDS011;12897;50.812;4.430;2023-03-05T02:53:01;18.00;;;6.10;;
24799;SDS011;12897;50.812;4.430;2023-03-05T02:55:28;14.85;;;5.70;;
24799;SDS011;12897;50.812;4.430;2023-03-05T02:57:56;12.07;;;5.20;;
24799;SDS011;12897;50.812;4.430;2023-03-05T03:00:23;18.52;;;6.35;;
24799;SDS011;12897;50.812;4.430;2023-03-05T03:02:51;17.10;;;6.40;;
24799;SDS011;12897;50.812;4.430;2023-03-05T03:05:19;17.95;;;5.40;;
24799;SDS011;12897;50.812;4.430;2023-03-05T03:07:46;19.17;;;5.70;;
24799;SDS011;12897;50.812;4.430;2023-03-05T03:10:14;14.47;;;5.00;;
24799;SDS011;12897;50.812;4.430;2023-03-05T03:12:42;12.00;;;5.28;;
24799;SDS011;12897;50.812;4.430;2023-03-05T03:15:11;16.80;;;5.92;;
24799;SDS011;12897;50.812;4.430;2023-03-05T03:17:41;15.00;;;5.67;;
24799;SDS011;12897;50.812;4.430;2023-03-05T03:20:09;11.60;;;5.00;;
24799;SDS011;12897;50.812;4.430;2023-03-05T03:22:40;16.77;;;4.67;;
24799;SDS011;12897;50.812;4.430;2023-03-05T03:25:09;13.22;;;5.37;;
24799;SDS011;12897;50.812;4.430;2023-03-05T03:27:39;14.20;;;4.83;;
24799;SDS011;12897;50.812;4.430;2023-03-05T03:32:53;16.20;;;5.20;;
24799;SDS011;12897;50.812;4.430;2023-03-05T03:35:20;11.05;;;4.78;;
24799;SDS011;12897;50.812;4.430;2023-03-05T03:37:48;17.90;;;5.12;;
24799;SDS011;12897;50.812;4.430;2023-03-05T03:40:15;17.77;;;5.00;;
24799;SDS011;12897;50.812;4.430;2023-03-05T03:42:43;14.30;;;5.37;;
24799;SDS011;12897;50.812;4.430;2023-03-05T03:45:11;15.05;;;5.12;;
24799;SDS011;12897;50.812;4.430;2023-03-05T03:47:39;13.18;;;5.03;;
24799;SDS011;12897;50.812;4.430;2023-03-05T03:50:08;19.95;;;5.60;;
24799;SDS011;12897;50.812;4.430;2023-03-05T03:52:55;13.88;;;4.72;;
24799;SDS011;12897;50.812;4.430;2023-03-05T03:55:22;17.67;;;6.25;;
24799;SDS011;12897;50.812;4.430;2023-03-05T03:57:50;12.80;;;5.47;;
24799;SDS011;12897;50.812;4.430;2023-03-05T04:00:17;15.50;;;5.97;;
24799;SDS011;12897;50.812;4.430;2023-03-05T04:02:45;9.53;;;4.53;;
24799;SDS011;12897;50.812;4.430;2023-03-05T04:05:12;16.85;;;5.45;;
24799;SDS011;12897;50.812;4.430;2023-03-05T04:07:40;18.57;;;5.45;;
24799;SDS011;12897;50.812;4.430;2023-03-05T04:10:08;12.40;;;5.22;;
24799;SDS011;12897;50.812;4.430;2023-03-05T04:12:36;15.43;;;5.58;;
24799;SDS011;12897;50.812;4.430;2023-03-05T04:15:04;13.43;;;4.72;;
24799;SDS011;12897;50.812;4.430;2023-03-05T04:17:33;15.85;;;4.90;;
24799;SDS011;12897;50.812;4.430;2023-03-05T04:20:00;11.88;;;4.25;;
24799;SDS011;12897;50.812;4.430;2023-03-05T04:22:30;17.80;;;4.95;;
24799;SDS011;12897;50.812;4.430;2023-03-05T04:24:57;10.28;;;4.78;;
24799;SDS011;12897;50.812;4.430;2023-03-05T04:27:25;11.40;;;5.00;;
24799;SDS011;12897;50.812;4.430;2023-03-05T04:29:52;13.20;;;4.90;;
24799;SDS011;12897;50.812;4.430;2023-03-05T04:32:20;12.98;;;5.25;;
24799;SDS011;12897;50.812;4.430;2023-03-05T04:34:49;19.60;;;5.73;;
24799;SDS011;12897;50.812;4.430;2023-03-05T04:37:16;16.52;;;5.72;;
24799;SDS011;12897;50.812;4.430;2023-03-05T04:39:44;17.02;;;6.10;;
24799;SDS011;12897;50.812;4.430;2023-03-05T04:42:11;12.05;;;5.42;;
24799;SDS011;12897;50.812;4.430;2023-03-05T04:44:39;13.75;;;5.92;;
24799;SDS011;12897;50.812;4.430;2023-03-05T04:47:06;13.62;;;6.00;;
24799;SDS011;12897;50.812;4.430;2023-03-05T04:49:34;16.85;;;6.12;;
24799;SDS011;12897;50.812;4.430;2023-03-05T04:52:01;16.30;;;6.22;;
24799;SDS011;12897;50.812;4.430;2023-03-05T04:54:29;19.52;;;6.85;;
24799;SDS011;12897;50.812;4.430;2023-03-05T04:56:57;17.05;;;7.00;;
24799;SDS011;12897;50.812;4.430;2023-03-05T04:59:24;18.23;;;7.67;;
24799;SDS011;12897;50.812;4.430;2023-03-05T05:01:52;16.42;;;7.47;;
24799;SDS011;12897;50.812;4.430;2023-03-05T05:04:19;17.80;;;8.68;;
24799;SDS011;12897;50.812;4.430;2023-03-05T05:06:47;17.82;;;8.33;;
24799;SDS011;12897;50.812;4.430;2023-03-05T05:09:14;24.18;;;9.03;;
24799;SDS011;12897;50.812;4.430;2023-03-05T05:11:42;18.25;;;8.43;;
24799;SDS011;12897;50.812;4.430;2023-03-05T05:14:09;19.40;;;9.40;;
24799;SDS011;12897;50.812;4.430;2023-03-05T05:16:37;21.57;;;9.48;;
24799;SDS011;12897;50.812;4.430;2023-03-05T05:19:04;22.20;;;9.88;;
24799;SDS011;12897;50.812;4.430;2023-03-05T05:21:33;20.55;;;10.00;;
24799;SDS011;12897;50.812;4.430;2023-03-05T05:24:01;20.52;;;10.15;;
24799;SDS011;12897;50.812;4.430;2023-03-05T05:26:30;26.87;;;10.70;;
24799;SDS011;12897;50.812;4.430;2023-03-05T05:29:06;27.73;;;10.75;;
24799;SDS011;12897;50.812;4.430;2023-03-05T05:31:33;21.90;;;10.28;;
24799;SDS011;12897;50.812;4.430;2023-03-05T05:34:00;23.75;;;10.23;;
24799;SDS011;12897;50.812;4.430;2023-03-05T05:36:28;23.07;;;9.90;;
24799;SDS011;12897;50.812;4.430;2023-03-05T05:38:55;21.82;;;10.65;;
24799;SDS011;12897;50.812;4.430;2023-03-05T05:41:23;26.23;;;11.97;;
24799;SDS011;12897;50.812;4.430;2023-03-05T05:43:55;21.85;;;12.93;;
24799;SDS011;12897;50.812;4.430;2023-03-05T05:46:26;25.97;;;12.60;;
24799;SDS011;12897;50.812;4.430;2023-03-05T05:48:52;26.12;;;12.53;;
24799;SDS011;12897;50.812;4.430;2023-03-05T05:51:20;21.82;;;12.40;;
24799;SDS011;12897;50.812;4.430;2023-03-05T05:53:48;23.32;;;12.53;;
24799;SDS011;12897;50.812;4.430;2023-03-05T05:56:16;26.42;;;13.13;;
24799;SDS011;12897;50.812;4.430;2023-03-05T05:58:44;20.27;;;12.78;;
24799;SDS011;12897;50.812;4.430;2023-03-05T06:01:14;28.12;;;13.75;;
24799;SDS011;12897;50.812;4.430;2023-03-05T06:03:44;28.70;;;12.75;;
24799;SDS011;12897;50.812;4.430;2023-03-05T06:06:18;27.98;;;14.75;;
24799;SDS011;12897;50.812;4.430;2023-03-05T06:08:47;26.10;;;13.98;;
24799;SDS011;12897;50.812;4.430;2023-03-05T06:11:15;24.77;;;14.35;;
24799;SDS011;12897;50.812;4.430;2023-03-05T06:13:44;27.25;;;14.33;;
24799;SDS011;12897;50.812;4.430;2023-03-05T06:16:13;22.90;;;14.43;;
24799;SDS011;12897;50.812;4.430;2023-03-05T06:18:42;26.55;;;13.85;;
24799;SDS011;12897;50.812;4.430;2023-03-05T06:21:11;27.13;;;13.88;;
24799;SDS011;12897;50.812;4.430;2023-03-05T06:23:41;25.60;;;14.55;;
24799;SDS011;12897;50.812;4.430;2023-03-05T06:26:09;31.10;;;14.83;;
24799;SDS011;12897;50.812;4.430;2023-03-05T06:28:38;25.55;;;14.83;;
24799;SDS011;12897;50.812;4.430;2023-03-05T06:31:17;28.83;;;14.85;;
24799;SDS011;12897;50.812;4.430;2023-03-05T06:33:51;27.87;;;16.05;;
24799;SDS011;12897;50.812;4.430;2023-03-05T06:36:21;26.33;;;13.35;;
24799;SDS011;12897;50.812;4.430;2023-03-05T06:38:50;28.35;;;14.68;;
24799;SDS011;12897;50.812;4.430;2023-03-05T06:41:20;31.82;;;14.83;;
24799;SDS011;12897;50.812;4.430;2023-03-05T06:43:49;26.15;;;14.98;;
24799;SDS011;12897;50.812;4.430;2023-03-05T06:46:20;38.50;;;15.48;;
24799;SDS011;12897;50.812;4.430;2023-03-05T06:48:49;24.82;;;15.32;;
24799;SDS011;12897;50.812;4.430;2023-03-05T06:51:18;29.75;;;15.55;;
24799;SDS011;12897;50.812;4.430;2023-03-05T06:53:50;27.80;;;15.28;;
24799;SDS011;12897;50.812;4.430;2023-03-05T06:56:20;32.17;;;15.70;;
24799;SDS011;12897;50.812;4.430;2023-03-05T06:58:49;25.10;;;14.80;;
24799;SDS011;12897;50.812;4.430;2023-03-05T07:01:18;28.20;;;15.77;;
24799;SDS011;12897;50.812;4.430;2023-03-05T07:03:49;28.87;;;15.15;;
24799;SDS011;12897;50.812;4.430;2023-03-05T07:06:18;25.95;;;14.83;;
24799;SDS011;12897;50.812;4.430;2023-03-05T07:08:46;28.25;;;13.95;;
24799;SDS011;12897;50.812;4.430;2023-03-05T07:11:16;26.70;;;14.50;;
24799;SDS011;12897;50.812;4.430;2023-03-05T07:16:22;28.67;;;12.10;;
24799;SDS011;12897;50.812;4.430;2023-03-05T07:18:49;18.05;;;12.05;;
24799;SDS011;12897;50.812;4.430;2023-03-05T07:21:20;28.12;;;12.00;;
24799;SDS011;12897;50.812;4.430;2023-03-05T07:23:51;23.70;;;12.58;;
24799;SDS011;12897;50.812;4.430;2023-03-05T07:26:26;26.82;;;12.37;;
24799;SDS011;12897;50.812;4.430;2023-03-05T07:28:55;21.07;;;12.47;;
24799;SDS011;12897;50.812;4.430;2023-03-05T07:31:24;23.07;;;12.30;;
24799;SDS011;12897;50.812;4.430;2023-03-05T07:33:53;22.17;;;12.53;;
24799;SDS011;12897;50.812;4.430;2023-03-05T07:36:21;23.85;;;12.10;;
24799;SDS011;12897;50.812;4.430;2023-03-05T07:38:49;23.00;;;12.53;;
24799;SDS011;12897;50.812;4.430;2023-03-05T07:41:17;24.50;;;12.35;;
24799;SDS011;12897;50.812;4.430;2023-03-05T07:43:48;27.50;;;13.05;;
24799;SDS011;12897;50.812;4.430;2023-03-05T07:46:18;27.17;;;12.98;;
24799;SDS011;12897;50.812;4.430;2023-03-05T07:48:48;21.35;;;11.12;;
24799;SDS011;12897;50.812;4.430;2023-03-05T07:51:17;18.52;;;11.55;;
24799;SDS011;12897;50.812;4.430;2023-03-05T07:53:47;21.62;;;11.78;;
24799;SDS011;12897;50.812;4.430;2023-03-05T07:56:22;17.35;;;10.25;;
24799;SDS011;12897;50.812;4.430;2023-03-05T07:59:04;22.07;;;10.15;;
24799;SDS011;12897;50.812;4.430;2023-03-05T08:01:32;19.10;;;8.58;;
24799;SDS011;12897;50.812;4.430;2023-03-05T08:04:01;16.35;;;8.70;;
24799;SDS011;12897;50.812;4.430;2023-03-05T08:06:30;17.98;;;8.35;;
24799;SDS011;12897;50.812;4.430;2023-03-05T08:08:58;19.55;;;9.33;;
24799;SDS011;12897;50.812;4.430;2023-03-05T08:11:26;14.63;;;8.73;;
24799;SDS011;12897;50.812;4.430;2023-03-05T08:13:53;17.85;;;8.00;;
24799;SDS011;12897;50.812;4.430;2023-03-05T08:16:23;12.70;;;7.60;;
24799;SDS011;12897;50.812;4.430;2023-03-05T08:18:56;21.05;;;9.10;;
24799;SDS011;12897;50.812;4.430;2023-03-05T08:21:23;17.10;;;8.23;;
24799;SDS011;12897;50.812;4.430;2023-03-05T08:23:55;15.93;;;7.87;;
24799;SDS011;12897;50.812;4.430;2023-03-05T08:26:24;15.35;;;8.15;;
24799;SDS011;12897;50.812;4.430;2023-03-05T08:28:53;14.73;;;8.10;;
24799;SDS011;12897;50.812;4.430;2023-03-05T08:31:21;14.70;;;8.15;;
24799;SDS011;12897;50.812;4.430;2023-03-05T08:48:45;14.03;;;7.65;;
24799;SDS011;12897;50.812;4.430;2023-03-05T08:51:35;17.10;;;8.13;;
24799;SDS011;12897;50.812;4.430;2023-03-05T08:54:05;13.85;;;7.70;;
24799;SDS011;12897;50.812;4.430;2023-03-05T08:56:40;14.60;;;7.65;;
24799;SDS011;12897;50.812;4.430;2023-03-05T09:02:37;12.30;;;7.53;;
24799;SDS011;12897;50.812;4.430;2023-03-05T09:07:57;13.60;;;7.42;;
24799;SDS011;12897;50.812;4.430;2023-03-05T09:10:42;13.70;;;8.25;;
24799;SDS011;12897;50.812;4.430;2023-03-05T09:13:11;12.80;;;7.00;;
24799;SDS011;12897;50.812;4.430;2023-03-05T09:15:40;12.58;;;7.22;;
24799;SDS011;12897;50.812;4.430;2023-03-05T09:18:09;16.10;;;8.83;;
24799;SDS011;12897;50.812;4.430;2023-03-05T09:20:40;11.93;;;7.75;;
24799;SDS011;12897;50.812;4.430;2023-03-05T09:23:08;15.18;;;8.53;;
24799;SDS011;12897;50.812;4.430;2023-03-05T09:28:10;14.23;;;8.18;;
24799;SDS011;12897;50.812;4.430;2023-03-05T09:30:38;13.20;;;8.25;;
24799;SDS011;12897;50.812;4.430;2023-03-05T09:33:05;14.55;;;8.83;;
24799;SDS011;12897;50.812;4.430;2023-03-05T09:35:34;16.48;;;9.05;;
24799;SDS011;12897;50.812;4.430;2023-03-05T09:38:02;14.00;;;9.93;;
24799;SDS011;12897;50.812;4.430;2023-03-05T09:40:43;17.00;;;10.30;;
24799;SDS011;12897;50.812;4.430;2023-03-05T09:43:33;15.05;;;9.70;;
24799;SDS011;12897;50.812;4.430;2023-03-05T09:49:31;21.33;;;12.55;;
24799;SDS011;12897;50.812;4.430;2023-03-05T09:52:15;20.32;;;11.50;;
24799;SDS011;12897;50.812;4.430;2023-03-05T09:54:44;23.67;;;10.58;;
24799;SDS011;12897;50.812;4.430;2023-03-05T09:57:16;17.42;;;9.95;;
24799;SDS011;12897;50.812;4.430;2023-03-05T10:02:22;9.55;;;6.37;;
24799;SDS011;12897;50.812;4.430;2023-03-05T10:07:57;11.65;;;6.58;;
24799;SDS011;12897;50.812;4.430;2023-03-05T10:10:22;13.90;;;6.47;;
24799;SDS011;12897;50.812;4.430;2023-03-05T10:12:51;11.68;;;6.47;;
24799;SDS011;12897;50.812;4.430;2023-03-05T10:23:56;8.68;;;3.90;;
24799;SDS011;12897;50.812;4.430;2023-03-05T10:29:29;17.27;;;7.55;;
24799;SDS011;12897;50.812;4.430;2023-03-05T10:32:20;8.08;;;4.12;;
24799;SDS011;12897;50.812;4.430;2023-03-05T10:34:56;8.48;;;3.70;;
24799;SDS011;12897;50.812;4.430;2023-03-05T10:40:40;8.45;;;4.97;;
24799;SDS011;12897;50.812;4.430;2023-03-05T10:45:53;7.05;;;3.70;;
24799;SDS011;12897;50.812;4.430;2023-03-05T10:48:26;11.45;;;4.05;;
24799;SDS011;12897;50.812;4.430;2023-03-05T10:51:03;8.95;;;4.22;;
24799;SDS011;12897;50.812;4.430;2023-03-05T10:53:47;5.70;;;3.55;;
24799;SDS011;12897;50.812;4.430;2023-03-05T10:56:03;5.85;;;3.20;;
24799;SDS011;12897;50.812;4.430;2023-03-05T10:58:32;6.22;;;2.95;;
24799;SDS011;12897;50.812;4.430;2023-03-05T11:01:00;6.05;;;3.40;;
24799;SDS011;12897;50.812;4.430;2023-03-05T11:06:31;5.30;;;3.05;;
24799;SDS011;12897;50.812;4.430;2023-03-05T11:09:21;5.22;;;3.22;;
24799;SDS011;12897;50.812;4.430;2023-03-05T11:11:45;9.05;;;3.20;;
24799;SDS011;12897;50.812;4.430;2023-03-05T11:14:31;6.33;;;3.50;;
24799;SDS011;12897;50.812;4.430;2023-03-05T11:17:07;7.95;;;4.90;;
24799;SDS011;12897;50.812;4.430;2023-03-05T11:19:47;9.25;;;4.70;;
24799;SDS011;12897;50.812;4.430;2023-03-05T11:22:16;9.05;;;4.70;;
24799;SDS011;12897;50.812;4.430;2023-03-05T11:25:12;11.43;;;5.35;;
24799;SDS011;12897;50.812;4.430;2023-03-05T11:27:38;8.70;;;4.58;;
24799;SDS011;12897;50.812;4.430;2023-03-05T11:30:23;7.60;;;4.10;;
24799;SDS011;12897;50.812;4.430;2023-03-05T11:33:07;10.30;;;4.72;;
24799;SDS011;12897;50.812;4.430;2023-03-05T11:35:38;8.90;;;5.42;;
24799;SDS011;12897;50.812;4.430;2023-03-05T11:38:15;8.25;;;4.87;;
24799;SDS011;12897;50.812;4.430;2023-03-05T11:40:44;9.23;;;5.53;;
24799;SDS011;12897;50.812;4.430;2023-03-05T11:43:14;6.83;;;4.28;;
24799;SDS011;12897;50.812;4.430;2023-03-05T11:45:43;7.87;;;4.12;;
24799;SDS011;12897;50.812;4.430;2023-03-05T11:50:53;7.53;;;3.55;;
24799;SDS011;12897;50.812;4.430;2023-03-05T11:53:24;10.43;;;4.10;;
24799;SDS011;12897;50.812;4.430;2023-03-05T11:56:03;7.85;;;3.77;;
24799;SDS011;12897;50.812;4.430;2023-03-05T11:58:38;9.23;;;2.75;;
24799;SDS011;12897;50.812;4.430;2023-03-05T12:01:27;6.55;;;3.05;;
24799;SDS011;12897;50.812;4.430;2023-03-05T12:03:52;4.42;;;2.45;;
24799;SDS011;12897;50.812;4.430;2023-03-05T12:15:17;5.15;;;2.55;;
24799;SDS011;12897;50.812;4.430;2023-03-05T12:17:43;6.90;;;2.65;;
24799;SDS011;12897;50.812;4.430;2023-03-05T12:20:13;5.92;;;3.25;;
24799;SDS011;12897;50.812;4.430;2023-03-05T12:22:46;7.75;;;3.33;;
24799;SDS011;12897;50.812;4.430;2023-03-05T12:25:20;6.92;;;3.45;;
24799;SDS011;12897;50.812;4.430;2023-03-05T12:27:51;7.42;;;3.80;;
24799;SDS011;12897;50.812;4.430;2023-03-05T12:33:04;6.20;;;4.15;;
24799;SDS011;12897;50.812;4.430;2023-03-05T12:35:35;8.43;;;4.22;;
24799;SDS011;12897;50.812;4.430;2023-03-05T12:38:05;6.58;;;4.22;;
24799;SDS011;12897;50.812;4.430;2023-03-05T12:40:37;8.75;;;5.20;;
24799;SDS011;12897;50.812;4.430;2023-03-05T12:43:05;8.60;;;5.12;;
24799;SDS011;12897;50.812;4.430;2023-03-05T12:45:52;12.23;;;6.40;;
24799;SDS011;12897;50.812;4.430;2023-03-05T12:50:57;10.35;;;6.62;;
24799;SDS011;12897;50.812;4.430;2023-03-05T12:53:23;10.55;;;7.10;;
24799;SDS011;12897;50.812;4.430;2023-03-05T13:03:55;11.93;;;7.80;;
24799;SDS011;12897;50.812;4.430;2023-03-05T13:06:33;9.93;;;7.10;;
24799;SDS011;12897;50.812;4.430;2023-03-05T13:09:03;9.10;;;7.35;;
24799;SDS011;12897;50.812;4.430;2023-03-05T13:11:49;14.13;;;8.10;;
24799;SDS011;12897;50.812;4.430;2023-03-05T13:14:25;11.10;;;7.35;;
24799;SDS011;12897;50.812;4.430;2023-03-05T13:16:52;13.70;;;8.10;;
24799;SDS011;12897;50.812;4.430;2023-03-05T13:19:20;9.30;;;6.60;;
24799;SDS011;12897;50.812;4.430;2023-03-05T13:21:59;9.85;;;6.83;;
24799;SDS011;12897;50.812;4.430;2023-03-05T13:24:29;11.15;;;7.17;;
24799;SDS011;12897;50.812;4.430;2023-03-05T13:26:57;13.18;;;7.22;;
24799;SDS011;12897;50.812;4.430;2023-03-05T13:29:25;11.38;;;7.28;;
24799;SDS011;12897;50.812;4.430;2023-03-05T13:34:33;10.65;;;7.45;;
24799;SDS011;12897;50.812;4.430;2023-03-05T13:37:06;7.50;;;4.70;;
24799;SDS011;12897;50.812;4.430;2023-03-05T13:39:47;5.87;;;3.17;;
24799;SDS011;12897;50.812;4.430;2023-03-05T13:42:24;5.60;;;2.58;;
24799;SDS011;12897;50.812;4.430;2023-03-05T13:45:01;5.60;;;2.87;;
24799;SDS011;12897;50.812;4.430;2023-03-05T13:47:27;4.08;;;2.45;;
24799;SDS011;12897;50.812;4.430;2023-03-05T13:49:57;5.92;;;2.50;;
24799;SDS011;12897;50.812;4.430;2023-03-05T13:52:30;4.87;;;2.40;;
24799;SDS011;12897;50.812;4.430;2023-03-05T13:54:59;5.92;;;2.60;;
24799;SDS011;12897;50.812;4.430;2023-03-05T13:57:42;6.60;;;2.70;;
24799;SDS011;12897;50.812;4.430;2023-03-05T14:05:26;5.22;;;2.30;;
24799;SDS011;12897;50.812;4.430;2023-03-05T14:07:56;2.67;;;1.67;;
24799;SDS011;12897;50.812;4.430;2023-03-05T14:10:28;3.02;;;1.37;;
24799;SDS011;12897;50.812;4.430;2023-03-05T14:13:01;2.42;;;1.50;;
24799;SDS011;12897;50.812;4.430;2023-03-05T14:15:32;5.45;;;1.32;;
24799;SDS011;12897;50.812;4.430;2023-03-05T14:20:57;4.80;;;1.90;;
24799;SDS011;12897;50.812;4.430;2023-03-05T14:23:34;6.65;;;2.17;;
24799;SDS011;12897;50.812;4.430;2023-03-05T14:26:38;3.27;;;1.85;;
24799;SDS011;12897;50.812;4.430;2023-03-05T14:28:50;3.35;;;2.27;;
24799;SDS011;12897;50.812;4.430;2023-03-05T14:31:20;3.72;;;2.17;;
24799;SDS011;12897;50.812;4.430;2023-03-05T14:33:50;6.22;;;2.60;;
24799;SDS011;12897;50.812;4.430;2023-03-05T14:36:22;4.25;;;2.47;;
24799;SDS011;12897;50.812;4.430;2023-03-05T14:38:51;13.58;;;2.87;;
24799;SDS011;12897;50.812;4.430;2023-03-05T14:43:59;5.60;;;1.85;;
24799;SDS011;12897;50.812;4.430;2023-03-05T14:46:27;5.10;;;1.95;;
24799;SDS011;12897;50.812;4.430;2023-03-05T14:48:55;2.60;;;1.67;;
24799;SDS011;12897;50.812;4.430;2023-03-05T14:51:22;3.15;;;1.60;;
24799;SDS011;12897;50.812;4.430;2023-03-05T14:53:51;3.52;;;1.50;;
24799;SDS011;12897;50.812;4.430;2023-03-05T14:56:25;3.87;;;1.22;;
24799;SDS011;12897;50.812;4.430;2023-03-05T14:58:54;3.30;;;1.12;;
24799;SDS011;12897;50.812;4.430;2023-03-05T15:01:25;1.72;;;1.00;;
24799;SDS011;12897;50.812;4.430;2023-03-05T15:03:52;3.52;;;1.32;;
24799;SDS011;12897;50.812;4.430;2023-03-05T15:06:23;4.08;;;1.37;;
24799;SDS011;12897;50.812;4.430;2023-03-05T15:08:51;3.45;;;1.30;;
24799;SDS011;12897;50.812;4.430;2023-03-05T15:11:18;7.97;;;1.77;;
24799;SDS011;12897;50.812;4.430;2023-03-05T15:13:47;6.53;;;1.62;;
24799;SDS011;12897;50.812;4.430;2023-03-05T15:16:15;2.62;;;1.57;;
24799;SDS011;12897;50.812;4.430;2023-03-05T15:18:43;8.23;;;2.20;;
24799;SDS011;12897;50.812;4.430;2023-03-05T15:21:11;3.70;;;1.70;;
24799;SDS011;12897;50.812;4.430;2023-03-05T15:23:38;7.47;;;1.70;;
24799;SDS011;12897;50.812;4.430;2023-03-05T15:26:07;3.45;;;1.50;;
24799;SDS011;12897;50.812;4.430;2023-03-05T15:28:37;8.85;;;1.92;;
24799;SDS011;12897;50.812;4.430;2023-03-05T15:31:05;5.97;;;1.55;;
24799;SDS011;12897;50.812;4.430;2023-03-05T15:33:33;8.75;;;2.10;;
24799;SDS011;12897;50.812;4.430;2023-03-05T15:36:01;8.23;;;1.90;;
24799;SDS011;12897;50.812;4.430;2023-03-05T15:38:29;2.65;;;1.87;;
24799;SDS011;12897;50.812;4.430;2023-03-05T15:40:56;7.47;;;2.20;;
24799;SDS011;12897;50.812;4.430;2023-03-05T15:43:24;5.25;;;1.60;;
24799;SDS011;12897;50.812;4.430;2023-03-05T15:45:51;9.15;;;2.70;;
24799;SDS011;12897;50.812;4.430;2023-03-05T15:48:19;7.00;;;2.20;;
24799;SDS011;12897;50.812;4.430;2023-03-05T15:50:46;7.45;;;2.45;;
24799;SDS011;12897;50.812;4.430;2023-03-05T15:53:14;8.18;;;2.20;;
24799;SDS011;12897;50.812;4.430;2023-03-05T15:55:43;5.37;;;2.17;;
24799;SDS011;12897;50.812;4.430;2023-03-05T15:58:14;9.43;;;2.45;;
24799;SDS011;12897;50.812;4.430;2023-03-05T16:00:45;6.60;;;2.17;;
24799;SDS011;12897;50.812;4.430;2023-03-05T16:03:13;6.50;;;2.10;;
24799;SDS011;12897;50.812;4.430;2023-03-05T16:05:41;8.78;;;2.62;;
24799;SDS011;12897;50.812;4.430;2023-03-05T16:08:09;8.20;;;2.45;;
24799;SDS011;12897;50.812;4.430;2023-03-05T16:10:36;7.15;;;2.20;;
24799;SDS011;12897;50.812;4.430;2023-03-05T16:13:07;5.62;;;2.42;;
24799;SDS011;12897;50.812;4.430;2023-03-05T16:15:36;5.67;;;2.37;;
24799;SDS011;12897;50.812;4.430;2023-03-05T16:18:05;11.08;;;2.70;;
24799;SDS011;12897;50.812;4.430;2023-03-05T16:20:35;7.08;;;3.27;;
24799;SDS011;12897;50.812;4.430;2023-03-05T16:23:04;12.88;;;3.45;;
24799;SDS011;12897;50.812;4.430;2023-03-05T16:25:32;7.67;;;3.50;;
24799;SDS011;12897;50.812;4.430;2023-03-05T16:27:59;7.70;;;3.00;;
24799;SDS011;12897;50.812;4.430;2023-03-05T16:30:27;7.75;;;3.10;;
24799;SDS011;12897;50.812;4.430;2023-03-05T16:32:55;5.25;;;2.33;;
24799;SDS011;12897;50.812;4.430;2023-03-05T16:35:22;7.72;;;3.20;;